sensor_id;sensor_type;location;lat;lon;timestamp;P1;durP1;ratioP1;P2;durP2;ratioP2
40951;SDS011;26682;51.660;19.338;2024-03-02T00:00:36;75.10;;;44.63;;
40951;SDS011;26682;51.660;19.338;2024-03-02T00:06:51;69.72;;;43.30;;
40951;SDS011;26682;51.660;19.338;2024-03-02T00:09:37;73.25;;;44.97;;
40951;SDS011;26682;51.660;19.338;2024-03-02T00:12:20;70.95;;;43.45;;
40951;SDS011;26682;51.660;19.338;2024-03-02T00:15:06;68.05;;;43.05;;
40951;SDS011;26682;51.660;19.338;2024-03-02T00:18:34;67.13;;;42.50;;
40951;SDS011;26682;51.660;19.338;2024-03-02T00:21:18;67.65;;;42.30;;
40951;SDS011;26682;51.660;19.338;2024-03-02T00:24:07;67.90;;;42.63;;
40951;SDS011;26682;51.660;19.338;2024-03-02T00:27:03;65.72;;;42.05;;
40951;SDS011;26682;51.660;19.338;2024-03-02T00:29:47;62.33;;;41.80;;
40951;SDS011;26682;51.660;19.338;2024-03-02T00:32:29;65.80;;;42.22;;
40951;SDS011;26682;51.660;19.338;2024-03-02T00:35:12;64.07;;;42.03;;
40951;SDS011;26682;51.660;19.338;2024-03-02T00:37:54;65.57;;;42.90;;
40951;SDS011;26682;51.660;19.338;2024-03-02T00:40:37;61.42;;;42.17;;
40951;SDS011;26682;51.660;19.338;2024-03-02T00:46:18;63.92;;;40.65;;
40951;SDS011;26682;51.660;19.338;2024-03-02T00:49:40;64.57;;;41.85;;
40951;SDS011;26682;51.660;19.338;2024-03-02T00:52:23;66.05;;;41.42;;
40951;SDS011;26682;51.660;19.338;2024-03-02T00:55:07;58.60;;;41.22;;
40951;SDS011;26682;51.660;19.338;2024-03-02T00:57:49;63.10;;;39.47;;
40951;SDS011;26682;51.660;19.338;2024-03-02T01:00:32;61.05;;;40.03;;
40951;SDS011;26682;51.660;19.338;2024-03-02T01:03:14;60.50;;;39.03;;
40951;SDS011;26682;51.660;19.338;2024-03-02T01:05:57;62.95;;;39.83;;
40951;SDS011;26682;51.660;19.338;2024-03-02T01:08:39;59.05;;;38.90;;
40951;SDS011;26682;51.660;19.338;2024-03-02T01:11:23;55.00;;;38.70;;
40951;SDS011;26682;51.660;19.338;2024-03-02T01:14:06;58.45;;;40.10;;
40951;SDS011;26682;51.660;19.338;2024-03-02T01:16:48;52.90;;;36.42;;
40951;SDS011;26682;51.660;19.338;2024-03-02T01:19:31;61.28;;;38.33;;
40951;SDS011;26682;51.660;19.338;2024-03-02T01:22:13;56.13;;;38.30;;
40951;SDS011;26682;51.660;19.338;2024-03-02T01:24:56;55.20;;;37.15;;
40951;SDS011;26682;51.660;19.338;2024-03-02T01:27:38;54.85;;;37.40;;
40951;SDS011;26682;51.660;19.338;2024-03-02T01:30:20;57.95;;;38.13;;
40951;SDS011;26682;51.660;19.338;2024-03-02T01:33:03;56.10;;;37.97;;
40951;SDS011;26682;51.660;19.338;2024-03-02T01:35:47;57.15;;;37.08;;
40951;SDS011;26682;51.660;19.338;2024-03-02T01:38:30;57.33;;;37.25;;
40951;SDS011;26682;51.660;19.338;2024-03-02T01:41:13;51.40;;;36.78;;
40951;SDS011;26682;51.660;19.338;2024-03-02T01:43:55;55.65;;;35.78;;
40951;SDS011;26682;51.660;19.338;2024-03-02T01:46:37;54.83;;;35.70;;
40951;SDS011;26682;51.660;19.338;2024-03-02T01:49:20;51.50;;;34.92;;
40951;SDS011;26682;51.660;19.338;2024-03-02T01:52:02;50.03;;;35.45;;
40951;SDS011;26682;51.660;19.338;2024-03-02T01:54:45;49.92;;;34.63;;
40951;SDS011;26682;51.660;19.338;2024-03-02T01:57:27;48.35;;;34.30;;
40951;SDS011;26682;51.660;19.338;2024-03-02T02:00:10;52.08;;;36.13;;
40951;SDS011;26682;51.660;19.338;2024-03-02T02:02:54;48.63;;;33.97;;
40951;SDS011;26682;51.660;19.338;2024-03-02T02:05:37;48.28;;;34.20;;
40951;SDS011;26682;51.660;19.338;2024-03-02T02:08:20;48.45;;;34.72;;
40951;SDS011;26682;51.660;19.338;2024-03-02T02:11:02;50.40;;;35.00;;
40951;SDS011;26682;51.660;19.338;2024-03-02T02:13:45;47.10;;;33.40;;
40951;SDS011;26682;51.660;19.338;2024-03-02T02:16:28;47.85;;;35.50;;
40951;SDS011;26682;51.660;19.338;2024-03-02T02:19:10;48.58;;;35.10;;
40951;SDS011;26682;51.660;19.338;2024-03-02T02:21:53;48.03;;;33.90;;
40951;SDS011;26682;51.660;19.338;2024-03-02T02:24:35;47.08;;;33.28;;
40951;SDS011;26682;51.660;19.338;2024-03-02T02:27:17;45.30;;;33.55;;
40951;SDS011;26682;51.660;19.338;2024-03-02T02:30:00;47.42;;;33.58;;
40951;SDS011;26682;51.660;19.338;2024-03-02T02:32:43;50.63;;;33.40;;
40951;SDS011;26682;51.660;19.338;2024-03-02T02:35:25;43.83;;;33.00;;
40951;SDS011;26682;51.660;19.338;2024-03-02T02:38:08;45.55;;;32.90;;
40951;SDS011;26682;51.660;19.338;2024-03-02T02:40:51;45.08;;;33.65;;
40951;SDS011;26682;51.660;19.338;2024-03-02T02:43:33;44.67;;;32.47;;
40951;SDS011;26682;51.660;19.338;2024-03-02T02:46:15;48.92;;;33.75;;
40951;SDS011;26682;51.660;19.338;2024-03-02T02:48:58;46.80;;;33.28;;
40951;SDS011;26682;51.660;19.338;2024-03-02T02:51:40;47.80;;;33.67;;
40951;SDS011;26682;51.660;19.338;2024-03-02T02:54:23;45.28;;;32.92;;
40951;SDS011;26682;51.660;19.338;2024-03-02T02:57:06;51.60;;;35.40;;
40951;SDS011;26682;51.660;19.338;2024-03-02T02:59:49;47.92;;;35.10;;
40951;SDS011;26682;51.660;19.338;2024-03-02T03:03:03;50.22;;;34.40;;
40951;SDS011;26682;51.660;19.338;2024-03-02T03:05:46;47.80;;;33.53;;
40951;SDS011;26682;51.660;19.338;2024-03-02T03:08:28;54.03;;;36.72;;
40951;SDS011;26682;51.660;19.338;2024-03-02T03:11:11;48.42;;;35.50;;
40951;SDS011;26682;51.660;19.338;2024-03-02T03:13:53;52.28;;;35.70;;
40951;SDS011;26682;51.660;19.338;2024-03-02T03:16:36;52.53;;;36.58;;
40951;SDS011;26682;51.660;19.338;2024-03-02T03:19:19;50.33;;;34.75;;
40951;SDS011;26682;51.660;19.338;2024-03-02T03:22:02;49.97;;;36.22;;
40951;SDS011;26682;51.660;19.338;2024-03-02T03:24:45;48.50;;;34.25;;
40951;SDS011;26682;51.660;19.338;2024-03-02T03:27:28;50.17;;;34.45;;
40951;SDS011;26682;51.660;19.338;2024-03-02T03:30:10;51.05;;;34.30;;
40951;SDS011;26682;51.660;19.338;2024-03-02T03:32:53;48.42;;;33.45;;
40951;SDS011;26682;51.660;19.338;2024-03-02T03:35:36;51.15;;;35.47;;
40951;SDS011;26682;51.660;19.338;2024-03-02T03:38:19;50.05;;;35.78;;
40951;SDS011;26682;51.660;19.338;2024-03-02T03:41:01;51.05;;;34.67;;
40951;SDS011;26682;51.660;19.338;2024-03-02T03:43:44;47.70;;;34.25;;
40951;SDS011;26682;51.660;19.338;2024-03-02T03:46:26;51.38;;;34.15;;
40951;SDS011;26682;51.660;19.338;2024-03-02T03:49:10;47.72;;;33.97;;
40951;SDS011;26682;51.660;19.338;2024-03-02T03:51:52;43.78;;;33.10;;
40951;SDS011;26682;51.660;19.338;2024-03-02T03:54:35;47.05;;;34.33;;
40951;SDS011;26682;51.660;19.338;2024-03-02T03:57:20;44.88;;;33.05;;
40951;SDS011;26682;51.660;19.338;2024-03-02T04:00:03;53.28;;;35.00;;
40951;SDS011;26682;51.660;19.338;2024-03-02T04:02:55;45.42;;;33.35;;
40951;SDS011;26682;51.660;19.338;2024-03-02T04:05:38;45.55;;;33.28;;
40951;SDS011;26682;51.660;19.338;2024-03-02T04:08:21;49.85;;;33.22;;
40951;SDS011;26682;51.660;19.338;2024-03-02T04:11:03;50.35;;;32.95;;
40951;SDS011;26682;51.660;19.338;2024-03-02T04:13:47;42.88;;;31.90;;
40951;SDS011;26682;51.660;19.338;2024-03-02T04:16:29;45.30;;;32.58;;
40951;SDS011;26682;51.660;19.338;2024-03-02T04:19:12;43.75;;;31.70;;
40951;SDS011;26682;51.660;19.338;2024-03-02T04:21:54;41.85;;;31.77;;
40951;SDS011;26682;51.660;19.338;2024-03-02T04:24:36;45.63;;;32.25;;
40951;SDS011;26682;51.660;19.338;2024-03-02T04:27:19;43.35;;;31.10;;
40951;SDS011;26682;51.660;19.338;2024-03-02T04:30:02;44.85;;;32.80;;
40951;SDS011;26682;51.660;19.338;2024-03-02T04:32:47;43.58;;;32.03;;
40951;SDS011;26682;51.660;19.338;2024-03-02T04:35:31;45.35;;;31.08;;
40951;SDS011;26682;51.660;19.338;2024-03-02T04:38:13;46.13;;;32.28;;
40951;SDS011;26682;51.660;19.338;2024-03-02T04:40:56;43.88;;;31.70;;
40951;SDS011;26682;51.660;19.338;2024-03-02T04:43:38;46.88;;;32.88;;
40951;SDS011;26682;51.660;19.338;2024-03-02T04:46:20;43.15;;;32.88;;
40951;SDS011;26682;51.660;19.338;2024-03-02T04:49:03;45.78;;;34.65;;
40951;SDS011;26682;51.660;19.338;2024-03-02T04:51:46;45.92;;;32.53;;
40951;SDS011;26682;51.660;19.338;2024-03-02T04:54:28;49.47;;;33.47;;
40951;SDS011;26682;51.660;19.338;2024-03-02T04:57:11;49.90;;;33.05;;
40951;SDS011;26682;51.660;19.338;2024-03-02T04:59:54;49.00;;;33.15;;
40951;SDS011;26682;51.660;19.338;2024-03-02T05:02:36;50.10;;;34.00;;
40951;SDS011;26682;51.660;19.338;2024-03-02T05:05:19;49.00;;;34.03;;
40951;SDS011;26682;51.660;19.338;2024-03-02T05:08:02;51.28;;;34.25;;
40951;SDS011;26682;51.660;19.338;2024-03-02T05:10:45;49.50;;;37.22;;
40951;SDS011;26682;51.660;19.338;2024-03-02T05:13:28;49.75;;;34.35;;
40951;SDS011;26682;51.660;19.338;2024-03-02T05:16:10;48.97;;;34.42;;
40951;SDS011;26682;51.660;19.338;2024-03-02T05:18:53;52.83;;;35.97;;
40951;SDS011;26682;51.660;19.338;2024-03-02T05:21:36;46.80;;;32.85;;
40951;SDS011;26682;51.660;19.338;2024-03-02T05:24:18;47.17;;;33.35;;
40951;SDS011;26682;51.660;19.338;2024-03-02T05:27:01;48.72;;;34.05;;
40951;SDS011;26682;51.660;19.338;2024-03-02T05:29:43;46.97;;;32.72;;
40951;SDS011;26682;51.660;19.338;2024-03-02T05:32:26;50.67;;;34.17;;
40951;SDS011;26682;51.660;19.338;2024-03-02T05:35:09;52.47;;;34.03;;
40951;SDS011;26682;51.660;19.338;2024-03-02T05:37:53;53.00;;;34.97;;
40951;SDS011;26682;51.660;19.338;2024-03-02T05:40:35;51.05;;;34.80;;
40951;SDS011;26682;51.660;19.338;2024-03-02T05:43:18;47.97;;;33.83;;
40951;SDS011;26682;51.660;19.338;2024-03-02T05:46:02;54.05;;;35.20;;
40951;SDS011;26682;51.660;19.338;2024-03-02T05:48:46;48.83;;;35.17;;
40951;SDS011;26682;51.660;19.338;2024-03-02T05:51:29;51.08;;;35.25;;
40951;SDS011;26682;51.660;19.338;2024-03-02T05:54:11;51.75;;;35.38;;
40951;SDS011;26682;51.660;19.338;2024-03-02T05:56:54;50.80;;;35.03;;
40951;SDS011;26682;51.660;19.338;2024-03-02T05:59:36;51.38;;;35.35;;
40951;SDS011;26682;51.660;19.338;2024-03-02T06:02:20;51.10;;;32.65;;
40951;SDS011;26682;51.660;19.338;2024-03-02T06:05:02;47.72;;;33.10;;
40951;SDS011;26682;51.660;19.338;2024-03-02T06:07:46;54.42;;;34.70;;
40951;SDS011;26682;51.660;19.338;2024-03-02T06:10:28;53.03;;;36.40;;
40951;SDS011;26682;51.660;19.338;2024-03-02T06:13:11;48.97;;;35.33;;
40951;SDS011;26682;51.660;19.338;2024-03-02T06:15:53;55.67;;;36.22;;
40951;SDS011;26682;51.660;19.338;2024-03-02T06:18:36;53.75;;;36.72;;
40951;SDS011;26682;51.660;19.338;2024-03-02T06:21:19;48.10;;;35.40;;
40951;SDS011;26682;51.660;19.338;2024-03-02T06:24:02;50.13;;;35.92;;
40951;SDS011;26682;51.660;19.338;2024-03-02T06:26:44;54.38;;;36.25;;
40951;SDS011;26682;51.660;19.338;2024-03-02T06:29:27;50.38;;;34.50;;
40951;SDS011;26682;51.660;19.338;2024-03-02T06:32:09;52.65;;;35.55;;
40951;SDS011;26682;51.660;19.338;2024-03-02T06:34:52;48.13;;;35.58;;
40951;SDS011;26682;51.660;19.338;2024-03-02T06:37:36;52.35;;;35.42;;
40951;SDS011;26682;51.660;19.338;2024-03-02T06:40:20;50.55;;;35.42;;
40951;SDS011;26682;51.660;19.338;2024-03-02T06:43:05;50.65;;;34.33;;
40951;SDS011;26682;51.660;19.338;2024-03-02T06:45:47;51.53;;;34.35;;
40951;SDS011;26682;51.660;19.338;2024-03-02T06:48:30;48.50;;;35.10;;
40951;SDS011;26682;51.660;19.338;2024-03-02T06:51:13;50.40;;;34.88;;
40951;SDS011;26682;51.660;19.338;2024-03-02T06:53:57;50.03;;;35.35;;
40951;SDS011;26682;51.660;19.338;2024-03-02T06:56:39;53.83;;;35.90;;
40951;SDS011;26682;51.660;19.338;2024-03-02T06:59:21;54.40;;;35.78;;
40951;SDS011;26682;51.660;19.338;2024-03-02T07:02:04;53.58;;;35.60;;
40951;SDS011;26682;51.660;19.338;2024-03-02T07:04:47;48.47;;;33.83;;
40951;SDS011;26682;51.660;19.338;2024-03-02T07:07:29;49.88;;;34.20;;
40951;SDS011;26682;51.660;19.338;2024-03-02T07:10:12;49.10;;;34.47;;
40951;SDS011;26682;51.660;19.338;2024-03-02T07:12:54;47.60;;;33.40;;
40951;SDS011;26682;51.660;19.338;2024-03-02T07:15:37;46.38;;;33.70;;
40951;SDS011;26682;51.660;19.338;2024-03-02T07:18:52;50.13;;;35.20;;
40951;SDS011;26682;51.660;19.338;2024-03-02T07:21:34;53.05;;;34.33;;
40951;SDS011;26682;51.660;19.338;2024-03-02T07:24:17;51.05;;;35.20;;
40951;SDS011;26682;51.660;19.338;2024-03-02T07:26:59;48.10;;;33.45;;
40951;SDS011;26682;51.660;19.338;2024-03-02T07:29:45;43.73;;;32.13;;
40951;SDS011;26682;51.660;19.338;2024-03-02T07:32:27;44.90;;;32.88;;
40951;SDS011;26682;51.660;19.338;2024-03-02T07:35:10;48.60;;;33.22;;
40951;SDS011;26682;51.660;19.338;2024-03-02T07:37:53;44.50;;;33.30;;
40951;SDS011;26682;51.660;19.338;2024-03-02T07:40:37;50.13;;;33.65;;
40951;SDS011;26682;51.660;19.338;2024-03-02T07:43:20;49.95;;;32.78;;
40951;SDS011;26682;51.660;19.338;2024-03-02T07:46:03;46.58;;;31.65;;
40951;SDS011;26682;51.660;19.338;2024-03-02T07:48:45;49.05;;;32.85;;
40951;SDS011;26682;51.660;19.338;2024-03-02T07:51:28;45.00;;;32.60;;
40951;SDS011;26682;51.660;19.338;2024-03-02T07:54:10;45.92;;;32.00;;
40951;SDS011;26682;51.660;19.338;2024-03-02T07:56:53;45.53;;;33.45;;
40951;SDS011;26682;51.660;19.338;2024-03-02T07:59:35;48.35;;;33.58;;
40951;SDS011;26682;51.660;19.338;2024-03-02T08:02:18;46.13;;;31.58;;
40951;SDS011;26682;51.660;19.338;2024-03-02T08:05:01;51.10;;;32.60;;
40951;SDS011;26682;51.660;19.338;2024-03-02T08:07:44;47.28;;;34.90;;
40951;SDS011;26682;51.660;19.338;2024-03-02T08:10:28;49.22;;;33.85;;
40951;SDS011;26682;51.660;19.338;2024-03-02T08:13:10;49.53;;;33.50;;
40951;SDS011;26682;51.660;19.338;2024-03-02T08:15:53;47.72;;;32.20;;
40951;SDS011;26682;51.660;19.338;2024-03-02T08:18:36;47.30;;;33.03;;
40951;SDS011;26682;51.660;19.338;2024-03-02T08:21:18;45.88;;;31.85;;
40951;SDS011;26682;51.660;19.338;2024-03-02T08:24:06;49.20;;;31.60;;
40951;SDS011;26682;51.660;19.338;2024-03-02T08:26:48;45.08;;;32.10;;
40951;SDS011;26682;51.660;19.338;2024-03-02T08:29:31;43.35;;;30.65;;
40951;SDS011;26682;51.660;19.338;2024-03-02T08:32:13;39.55;;;29.95;;
40951;SDS011;26682;51.660;19.338;2024-03-02T08:34:57;48.72;;;31.80;;
40951;SDS011;26682;51.660;19.338;2024-03-02T08:37:39;41.92;;;29.77;;
40951;SDS011;26682;51.660;19.338;2024-03-02T08:40:23;43.20;;;30.52;;
40951;SDS011;26682;51.660;19.338;2024-03-02T08:43:06;41.28;;;29.02;;
40951;SDS011;26682;51.660;19.338;2024-03-02T08:45:49;42.45;;;28.70;;
40951;SDS011;26682;51.660;19.338;2024-03-02T08:48:32;44.20;;;28.85;;
40951;SDS011;26682;51.660;19.338;2024-03-02T08:51:15;45.00;;;28.98;;
40951;SDS011;26682;51.660;19.338;2024-03-02T08:53:57;43.10;;;29.20;;
40951;SDS011;26682;51.660;19.338;2024-03-02T08:56:45;39.60;;;28.73;;
40951;SDS011;26682;51.660;19.338;2024-03-02T08:59:27;45.63;;;28.58;;
40951;SDS011;26682;51.660;19.338;2024-03-02T09:02:10;42.20;;;29.73;;
40951;SDS011;26682;51.660;19.338;2024-03-02T09:04:52;39.83;;;29.42;;
40951;SDS011;26682;51.660;19.338;2024-03-02T09:07:35;43.10;;;28.85;;
40951;SDS011;26682;51.660;19.338;2024-03-02T09:10:17;48.00;;;29.70;;
40951;SDS011;26682;51.660;19.338;2024-03-02T09:13:00;44.13;;;28.95;;
40951;SDS011;26682;51.660;19.338;2024-03-02T09:15:43;43.08;;;27.73;;
40951;SDS011;26682;51.660;19.338;2024-03-02T09:18:26;42.40;;;28.27;;
40951;SDS011;26682;51.660;19.338;2024-03-02T09:21:09;45.08;;;29.17;;
40951;SDS011;26682;51.660;19.338;2024-03-02T09:23:52;41.38;;;29.30;;
40951;SDS011;26682;51.660;19.338;2024-03-02T09:26:34;40.20;;;28.70;;
40951;SDS011;26682;51.660;19.338;2024-03-02T09:29:17;41.42;;;28.63;;
40951;SDS011;26682;51.660;19.338;2024-03-02T09:32:02;43.92;;;29.83;;
40951;SDS011;26682;51.660;19.338;2024-03-02T09:34:44;37.40;;;27.20;;
40951;SDS011;26682;51.660;19.338;2024-03-02T09:37:27;42.35;;;28.63;;
40951;SDS011;26682;51.660;19.338;2024-03-02T09:40:11;47.45;;;27.85;;
40951;SDS011;26682;51.660;19.338;2024-03-02T09:42:54;39.92;;;27.70;;
40951;SDS011;26682;51.660;19.338;2024-03-02T09:45:39;40.47;;;27.70;;
40951;SDS011;26682;51.660;19.338;2024-03-02T09:48:21;36.97;;;26.77;;
40951;SDS011;26682;51.660;19.338;2024-03-02T09:51:04;47.03;;;28.55;;
40951;SDS011;26682;51.660;19.338;2024-03-02T09:53:47;39.47;;;27.42;;
40951;SDS011;26682;51.660;19.338;2024-03-02T09:56:30;43.70;;;28.08;;
40951;SDS011;26682;51.660;19.338;2024-03-02T09:59:13;43.45;;;27.63;;
40951;SDS011;26682;51.660;19.338;2024-03-02T10:01:59;40.47;;;29.08;;
40951;SDS011;26682;51.660;19.338;2024-03-02T10:04:42;40.75;;;28.65;;
40951;SDS011;26682;51.660;19.338;2024-03-02T10:07:27;39.58;;;27.15;;
40951;SDS011;26682;51.660;19.338;2024-03-02T10:10:15;42.00;;;29.55;;
40951;SDS011;26682;51.660;19.338;2024-03-02T10:13:04;42.00;;;29.05;;
40951;SDS011;26682;51.660;19.338;2024-03-02T10:15:53;38.33;;;27.35;;
40951;SDS011;26682;51.660;19.338;2024-03-02T10:18:37;40.58;;;28.17;;
40951;SDS011;26682;51.660;19.338;2024-03-02T10:21:19;42.53;;;27.50;;
40951;SDS011;26682;51.660;19.338;2024-03-02T10:24:08;46.83;;;29.20;;
40951;SDS011;26682;51.660;19.338;2024-03-02T10:26:50;57.10;;;32.72;;
40951;SDS011;26682;51.660;19.338;2024-03-02T10:29:36;40.58;;;28.42;;
40951;SDS011;26682;51.660;19.338;2024-03-02T10:35:04;41.55;;;27.67;;
40951;SDS011;26682;51.660;19.338;2024-03-02T10:37:48;44.92;;;29.05;;
40951;SDS011;26682;51.660;19.338;2024-03-02T10:40:34;37.60;;;26.38;;
40951;SDS011;26682;51.660;19.338;2024-03-02T10:43:17;39.92;;;29.58;;
40951;SDS011;26682;51.660;19.338;2024-03-02T10:46:02;39.33;;;27.08;;
40951;SDS011;26682;51.660;19.338;2024-03-02T10:48:45;39.63;;;27.98;;
40951;SDS011;26682;51.660;19.338;2024-03-02T10:51:29;51.58;;;30.42;;
40951;SDS011;26682;51.660;19.338;2024-03-02T10:54:13;55.90;;;29.75;;
40951;SDS011;26682;51.660;19.338;2024-03-02T10:56:58;44.13;;;30.75;;
40951;SDS011;26682;51.660;19.338;2024-03-02T10:59:46;55.05;;;30.65;;
40951;SDS011;26682;51.660;19.338;2024-03-02T11:02:34;43.22;;;29.95;;
40951;SDS011;26682;51.660;19.338;2024-03-02T11:05:30;43.08;;;30.08;;
40951;SDS011;26682;51.660;19.338;2024-03-02T11:08:17;43.78;;;31.55;;
40951;SDS011;26682;51.660;19.338;2024-03-02T11:11:11;47.35;;;31.75;;
40951;SDS011;26682;51.660;19.338;2024-03-02T11:14:04;41.80;;;28.92;;
40951;SDS011;26682;51.660;19.338;2024-03-02T11:16:51;48.35;;;32.85;;
40951;SDS011;26682;51.660;19.338;2024-03-02T11:19:36;45.30;;;32.15;;
40951;SDS011;26682;51.660;19.338;2024-03-02T11:22:21;44.57;;;31.10;;
40951;SDS011;26682;51.660;19.338;2024-03-02T11:25:04;48.47;;;31.25;;
40951;SDS011;26682;51.660;19.338;2024-03-02T11:28:05;46.92;;;30.65;;
40951;SDS011;26682;51.660;19.338;2024-03-02T11:30:49;47.83;;;32.15;;
40951;SDS011;26682;51.660;19.338;2024-03-02T11:33:32;45.83;;;32.50;;
40951;SDS011;26682;51.660;19.338;2024-03-02T11:36:15;47.72;;;31.67;;
40951;SDS011;26682;51.660;19.338;2024-03-02T11:38:58;45.88;;;31.38;;
40951;SDS011;26682;51.660;19.338;2024-03-02T11:41:41;51.03;;;31.63;;
40951;SDS011;26682;51.660;19.338;2024-03-02T11:44:27;48.45;;;31.52;;
40951;SDS011;26682;51.660;19.338;2024-03-02T11:47:11;44.15;;;31.98;;
40951;SDS011;26682;51.660;19.338;2024-03-02T11:49:57;54.25;;;32.53;;
40951;SDS011;26682;51.660;19.338;2024-03-02T11:52:41;52.78;;;33.22;;
40951;SDS011;26682;51.660;19.338;2024-03-02T11:55:25;51.85;;;34.17;;
40951;SDS011;26682;51.660;19.338;2024-03-02T11:58:08;52.10;;;33.83;;
40951;SDS011;26682;51.660;19.338;2024-03-02T12:00:52;49.58;;;31.55;;
40951;SDS011;26682;51.660;19.338;2024-03-02T12:03:35;52.65;;;33.25;;
40951;SDS011;26682;51.660;19.338;2024-03-02T12:06:18;50.33;;;31.35;;
40951;SDS011;26682;51.660;19.338;2024-03-02T12:09:03;50.08;;;31.55;;
40951;SDS011;26682;51.660;19.338;2024-03-02T12:11:46;47.97;;;32.45;;
40951;SDS011;26682;51.660;19.338;2024-03-02T12:14:29;51.05;;;32.95;;
40951;SDS011;26682;51.660;19.338;2024-03-02T12:17:12;49.05;;;31.23;;
40951;SDS011;26682;51.660;19.338;2024-03-02T12:19:57;48.15;;;30.90;;
40951;SDS011;26682;51.660;19.338;2024-03-02T12:22:40;47.88;;;30.58;;
40951;SDS011;26682;51.660;19.338;2024-03-02T12:25:34;50.33;;;30.23;;
40951;SDS011;26682;51.660;19.338;2024-03-02T12:28:16;49.05;;;31.83;;
40951;SDS011;26682;51.660;19.338;2024-03-02T12:30:59;49.80;;;30.77;;
40951;SDS011;26682;51.660;19.338;2024-03-02T12:33:42;49.28;;;29.70;;
40951;SDS011;26682;51.660;19.338;2024-03-02T12:36:25;48.05;;;32.00;;
40951;SDS011;26682;51.660;19.338;2024-03-02T12:39:08;43.15;;;28.45;;
40951;SDS011;26682;51.660;19.338;2024-03-02T12:41:52;47.08;;;29.50;;
40951;SDS011;26682;51.660;19.338;2024-03-02T12:44:35;46.33;;;29.58;;
40951;SDS011;26682;51.660;19.338;2024-03-02T12:47:18;47.67;;;30.77;;
40951;SDS011;26682;51.660;19.338;2024-03-02T12:50:01;53.97;;;31.52;;
40951;SDS011;26682;51.660;19.338;2024-03-02T12:52:53;43.25;;;27.25;;
40951;SDS011;26682;51.660;19.338;2024-03-02T12:55:36;44.47;;;29.30;;
40951;SDS011;26682;51.660;19.338;2024-03-02T12:58:22;43.40;;;28.48;;
40951;SDS011;26682;51.660;19.338;2024-03-02T13:01:05;41.13;;;29.15;;
40951;SDS011;26682;51.660;19.338;2024-03-02T13:03:53;48.13;;;28.95;;
40951;SDS011;26682;51.660;19.338;2024-03-02T13:06:39;46.80;;;29.85;;
40951;SDS011;26682;51.660;19.338;2024-03-02T13:09:23;52.72;;;30.67;;
40951;SDS011;26682;51.660;19.338;2024-03-02T13:12:06;46.42;;;28.75;;
40951;SDS011;26682;51.660;19.338;2024-03-02T13:14:52;47.42;;;29.17;;
40951;SDS011;26682;51.660;19.338;2024-03-02T13:17:34;49.90;;;29.10;;
40951;SDS011;26682;51.660;19.338;2024-03-02T13:20:19;43.17;;;29.90;;
40951;SDS011;26682;51.660;19.338;2024-03-02T13:23:04;44.60;;;29.30;;
40951;SDS011;26682;51.660;19.338;2024-03-02T13:25:47;45.50;;;28.67;;
40951;SDS011;26682;51.660;19.338;2024-03-02T13:28:30;45.70;;;29.70;;
40951;SDS011;26682;51.660;19.338;2024-03-02T13:31:12;46.97;;;29.73;;
40951;SDS011;26682;51.660;19.338;2024-03-02T13:33:55;44.33;;;30.42;;
40951;SDS011;26682;51.660;19.338;2024-03-02T13:36:38;51.97;;;31.30;;
40951;SDS011;26682;51.660;19.338;2024-03-02T13:39:21;49.67;;;29.95;;
40951;SDS011;26682;51.660;19.338;2024-03-02T13:42:04;42.60;;;29.33;;
40951;SDS011;26682;51.660;19.338;2024-03-02T13:44:49;44.00;;;30.00;;
40951;SDS011;26682;51.660;19.338;2024-03-02T13:47:33;47.22;;;30.73;;
40951;SDS011;26682;51.660;19.338;2024-03-02T13:50:15;46.13;;;30.33;;
40951;SDS011;26682;51.660;19.338;2024-03-02T13:52:58;55.42;;;32.90;;
40951;SDS011;26682;51.660;19.338;2024-03-02T13:55:41;55.67;;;31.35;;
40951;SDS011;26682;51.660;19.338;2024-03-02T13:58:23;55.30;;;33.40;;
40951;SDS011;26682;51.660;19.338;2024-03-02T14:01:06;56.20;;;34.72;;
40951;SDS011;26682;51.660;19.338;2024-03-02T14:03:48;52.45;;;33.63;;
40951;SDS011;26682;51.660;19.338;2024-03-02T14:06:31;53.83;;;33.72;;
40951;SDS011;26682;51.660;19.338;2024-03-02T14:09:14;54.20;;;35.40;;
40951;SDS011;26682;51.660;19.338;2024-03-02T14:11:56;52.75;;;35.50;;
40951;SDS011;26682;51.660;19.338;2024-03-02T14:14:42;62.30;;;38.83;;
40951;SDS011;26682;51.660;19.338;2024-03-02T14:17:25;61.83;;;37.22;;
40951;SDS011;26682;51.660;19.338;2024-03-02T14:20:07;58.22;;;37.92;;
40951;SDS011;26682;51.660;19.338;2024-03-02T14:22:53;53.77;;;35.60;;
40951;SDS011;26682;51.660;19.338;2024-03-02T14:25:36;54.95;;;35.97;;
40951;SDS011;26682;51.660;19.338;2024-03-02T14:28:18;56.65;;;34.83;;
40951;SDS011;26682;51.660;19.338;2024-03-02T14:31:22;51.45;;;35.40;;
40951;SDS011;26682;51.660;19.338;2024-03-02T14:34:05;56.08;;;35.75;;
40951;SDS011;26682;51.660;19.338;2024-03-02T14:36:48;54.30;;;36.10;;
40951;SDS011;26682;51.660;19.338;2024-03-02T14:39:30;52.40;;;35.63;;
40951;SDS011;26682;51.660;19.338;2024-03-02T14:42:16;57.75;;;36.05;;
40951;SDS011;26682;51.660;19.338;2024-03-02T14:45:00;61.13;;;36.35;;
40951;SDS011;26682;51.660;19.338;2024-03-02T14:47:45;55.97;;;35.67;;
40951;SDS011;26682;51.660;19.338;2024-03-02T14:50:28;63.72;;;38.30;;
40951;SDS011;26682;51.660;19.338;2024-03-02T14:53:11;61.78;;;38.63;;
40951;SDS011;26682;51.660;19.338;2024-03-02T14:55:54;57.97;;;37.80;;
40951;SDS011;26682;51.660;19.338;2024-03-02T14:58:37;55.28;;;37.28;;
40951;SDS011;26682;51.660;19.338;2024-03-02T15:01:19;53.92;;;36.03;;
40951;SDS011;26682;51.660;19.338;2024-03-02T15:04:05;55.63;;;37.30;;
40951;SDS011;26682;51.660;19.338;2024-03-02T15:06:47;58.47;;;38.03;;
40951;SDS011;26682;51.660;19.338;2024-03-02T15:09:30;53.03;;;35.95;;
40951;SDS011;26682;51.660;19.338;2024-03-02T15:12:13;58.35;;;36.70;;
40951;SDS011;26682;51.660;19.338;2024-03-02T15:14:56;54.40;;;36.75;;
40951;SDS011;26682;51.660;19.338;2024-03-02T15:17:39;55.95;;;36.72;;
40951;SDS011;26682;51.660;19.338;2024-03-02T15:20:21;57.25;;;37.70;;
40951;SDS011;26682;51.660;19.338;2024-03-02T15:23:04;63.30;;;37.10;;
40951;SDS011;26682;51.660;19.338;2024-03-02T15:25:46;58.30;;;37.58;;
40951;SDS011;26682;51.660;19.338;2024-03-02T15:28:29;60.33;;;37.70;;
40951;SDS011;26682;51.660;19.338;2024-03-02T15:31:12;59.75;;;37.30;;
40951;SDS011;26682;51.660;19.338;2024-03-02T15:33:54;59.80;;;37.50;;
40951;SDS011;26682;51.660;19.338;2024-03-02T15:36:39;63.03;;;38.92;;
40951;SDS011;26682;51.660;19.338;2024-03-02T15:39:21;68.00;;;40.03;;
40951;SDS011;26682;51.660;19.338;2024-03-02T15:42:04;65.47;;;42.53;;
40951;SDS011;26682;51.660;19.338;2024-03-02T15:44:47;62.40;;;40.85;;
40951;SDS011;26682;51.660;19.338;2024-03-02T15:47:30;62.08;;;37.45;;
40951;SDS011;26682;51.660;19.338;2024-03-02T15:50:12;61.33;;;37.75;;
40951;SDS011;26682;51.660;19.338;2024-03-02T15:52:56;62.42;;;40.83;;